sensor_id;sensor_type;location;lat;lon;timestamp;pressure;altitude;pressure_sealevel;temperature;humidity
3096;BME280;1558;42.700;23.360;2023-11-21T00:00:41;95127.19;;;7.36;89.73
3096;BME280;1558;42.700;23.360;2023-11-21T00:03:09;95150.53;;;7.44;90.79
3096;BME280;1558;42.700;23.360;2023-11-21T00:05:41;95099.88;;;7.17;90.91
3096;BME280;1558;42.700;23.360;2023-11-21T00:08:11;95126.69;;;7.26;90.18
3096;BME280;1558;42.700;23.360;2023-11-21T00:10:39;95156.72;;;7.36;90.84
3096;BME280;1558;42.700;23.360;2023-11-21T00:13:07;95155.41;;;7.25;90.50
3096;BME280;1558;42.700;23.360;2023-11-21T00:15:35;95149.28;;;7.33;91.14
3096;BME280;1558;42.700;23.360;2023-11-21T00:18:03;95105.41;;;7.12;90.44
3096;BME280;1558;42.700;23.360;2023-11-21T00:20:31;95133.94;;;7.25;91.78
3096;BME280;1558;42.700;23.360;2023-11-21T00:23:00;95013.84;;;6.54;90.96
3096;BME280;1558;42.700;23.360;2023-11-21T00:25:30;95153.88;;;7.50;91.13
3096;BME280;1558;42.700;23.360;2023-11-21T00:27:59;95151.50;;;7.48;91.09
3096;BME280;1558;42.700;23.360;2023-11-21T00:30:28;95128.47;;;7.39;91.20
3096;BME280;1558;42.700;23.360;2023-11-21T00:32:57;95141.84;;;7.56;90.65
3096;BME280;1558;42.700;23.360;2023-11-21T00:35:26;95142.66;;;7.57;90.97
3096;BME280;1558;42.700;23.360;2023-11-21T00:37:54;95140.28;;;7.46;91.95
3096;BME280;1558;42.700;23.360;2023-11-21T00:40:22;95142.81;;;7.43;91.80
3096;BME280;1558;42.700;23.360;2023-11-21T00:42:53;95145.94;;;7.28;91.78
3096;BME280;1558;42.700;23.360;2023-11-21T00:45:22;95154.66;;;7.33;91.56
3096;BME280;1558;42.700;23.360;2023-11-21T00:47:50;95148.19;;;7.43;91.94
3096;BME280;1558;42.700;23.360;2023-11-21T00:50:18;95138.84;;;7.23;92.88
3096;BME280;1558;42.700;23.360;2023-11-21T00:52:47;95152.75;;;7.42;92.89
3096;BME280;1558;42.700;23.360;2023-11-21T00:55:15;95148.66;;;7.53;92.37
3096;BME280;1558;42.700;23.360;2023-11-21T00:57:44;95113.13;;;7.31;92.27
3096;BME280;1558;42.700;23.360;2023-11-21T01:00:15;95135.72;;;7.38;92.14
3096;BME280;1558;42.700;23.360;2023-11-21T01:02:46;95141.09;;;7.38;92.82
3096;BME280;1558;42.700;23.360;2023-11-21T01:05:15;95073.38;;;6.99;91.66
3096;BME280;1558;42.700;23.360;2023-11-21T01:07:43;95126.09;;;7.29;91.98
3096;BME280;1558;42.700;23.360;2023-11-21T01:10:11;95126.22;;;7.32;92.06
3096;BME280;1558;42.700;23.360;2023-11-21T01:12:40;95122.09;;;7.09;92.73
3096;BME280;1558;42.700;23.360;2023-11-21T01:15:08;95130.16;;;7.09;93.07
3096;BME280;1558;42.700;23.360;2023-11-21T01:17:40;95135.38;;;7.14;93.44
3096;BME280;1558;42.700;23.360;2023-11-21T01:20:10;95120.97;;;6.93;92.87
3096;BME280;1558;42.700;23.360;2023-11-21T01:22:41;95133.63;;;7.01;93.27
3096;BME280;1558;42.700;23.360;2023-11-21T01:25:10;95099.34;;;6.72;92.92
3096;BME280;1558;42.700;23.360;2023-11-21T01:27:38;95142.09;;;6.86;93.15
3096;BME280;1558;42.700;23.360;2023-11-21T01:30:07;95138.34;;;6.96;94.17
3096;BME280;1558;42.700;23.360;2023-11-21T01:32:37;95132.78;;;6.92;93.35
3096;BME280;1558;42.700;23.360;2023-11-21T01:35:08;95128.34;;;6.79;93.86
3096;BME280;1558;42.700;23.360;2023-11-21T01:37:37;95128.66;;;6.77;93.96
3096;BME280;1558;42.700;23.360;2023-11-21T01:40:07;95076.84;;;6.43;93.67
3096;BME280;1558;42.700;23.360;2023-11-21T01:42:38;95114.44;;;6.60;93.41
3096;BME280;1558;42.700;23.360;2023-11-21T01:45:07;95136.53;;;6.74;93.42
3096;BME280;1558;42.700;23.360;2023-11-21T01:47:36;95139.06;;;6.79;93.81
3096;BME280;1558;42.700;23.360;2023-11-21T01:50:08;95095.47;;;6.48;93.80
3096;BME280;1558;42.700;23.360;2023-11-21T01:52:39;95122.00;;;6.58;94.54
3096;BME280;1558;42.700;23.360;2023-11-21T01:55:08;95097.97;;;6.44;94.09
3096;BME280;1558;42.700;23.360;2023-11-21T01:57:36;95121.06;;;6.62;93.86
3096;BME280;1558;42.700;23.360;2023-11-21T02:00:06;95109.81;;;6.43;93.87
3096;BME280;1558;42.700;23.360;2023-11-21T02:02:42;95093.88;;;6.07;93.63
3096;BME280;1558;42.700;23.360;2023-11-21T02:05:14;95124.72;;;6.36;93.94
3096;BME280;1558;42.700;23.360;2023-11-21T02:07:44;95125.34;;;6.33;94.04
3096;BME280;1558;42.700;23.360;2023-11-21T02:10:14;95123.31;;;6.38;94.09
3096;BME280;1558;42.700;23.360;2023-11-21T02:12:44;95106.81;;;6.45;94.25
3096;BME280;1558;42.700;23.360;2023-11-21T02:15:13;95134.56;;;6.49;93.68
3096;BME280;1558;42.700;23.360;2023-11-21T02:17:47;95117.75;;;6.26;93.33
3096;BME280;1558;42.700;23.360;2023-11-21T02:20:20;95132.06;;;6.22;93.85
3096;BME280;1558;42.700;23.360;2023-11-21T02:22:54;95132.81;;;6.13;94.55
3096;BME280;1558;42.700;23.360;2023-11-21T02:25:26;95123.69;;;6.14;95.40
3096;BME280;1558;42.700;23.360;2023-11-21T02:27:55;95118.69;;;6.22;95.89
3096;BME280;1558;42.700;23.360;2023-11-21T02:30:24;95123.84;;;6.49;96.60
3096;BME280;1558;42.700;23.360;2023-11-21T02:32:55;95110.19;;;6.67;95.67
3096;BME280;1558;42.700;23.360;2023-11-21T02:35:24;95066.47;;;6.41;95.17
3096;BME280;1558;42.700;23.360;2023-11-21T02:37:55;95117.31;;;6.72;95.13
3096;BME280;1558;42.700;23.360;2023-11-21T02:40:23;95121.06;;;6.71;95.44
3096;BME280;1558;42.700;23.360;2023-11-21T02:42:53;95099.31;;;6.64;95.87
3096;BME280;1558;42.700;23.360;2023-11-21T02:45:22;95122.06;;;6.75;94.50
3096;BME280;1558;42.700;23.360;2023-11-21T02:47:51;95071.69;;;6.55;94.70
3096;BME280;1558;42.700;23.360;2023-11-21T02:50:25;95122.38;;;6.82;94.71
3096;BME280;1558;42.700;23.360;2023-11-21T02:52:55;95118.91;;;6.90;94.10
3096;BME280;1558;42.700;23.360;2023-11-21T02:55:25;95100.94;;;6.82;94.87
3096;BME280;1558;42.700;23.360;2023-11-21T02:57:53;95124.41;;;6.85;94.12
3096;BME280;1558;42.700;23.360;2023-11-21T03:00:23;95118.13;;;6.81;93.58
3096;BME280;1558;42.700;23.360;2023-11-21T03:02:53;95124.13;;;6.87;92.49
3096;BME280;1558;42.700;23.360;2023-11-21T03:05:22;95067.09;;;6.47;92.60
3096;BME280;1558;42.700;23.360;2023-11-21T03:07:50;95121.19;;;6.57;92.62
3096;BME280;1558;42.700;23.360;2023-11-21T03:10:19;95118.31;;;6.45;92.80
3096;BME280;1558;42.700;23.360;2023-11-21T03:12:47;95128.00;;;6.33;92.78
3096;BME280;1558;42.700;23.360;2023-11-21T03:15:16;95117.94;;;6.30;93.29
3096;BME280;1558;42.700;23.360;2023-11-21T03:17:44;95091.59;;;5.92;94.56
3096;BME280;1558;42.700;23.360;2023-11-21T03:20:12;95122.44;;;6.21;93.82
3096;BME280;1558;42.700;23.360;2023-11-21T03:22:40;95125.75;;;6.18;94.08
3096;BME280;1558;42.700;23.360;2023-11-21T03:25:09;95128.44;;;6.18;94.78
3096;BME280;1558;42.700;23.360;2023-11-21T03:27:39;95127.28;;;6.10;94.31
3096;BME280;1558;42.700;23.360;2023-11-21T03:30:09;95124.25;;;6.03;94.63
3096;BME280;1558;42.700;23.360;2023-11-21T03:32:37;95138.78;;;6.10;94.29
3096;BME280;1558;42.700;23.360;2023-11-21T03:35:06;95023.06;;;5.30;95.02
3096;BME280;1558;42.700;23.360;2023-11-21T03:37:34;95115.78;;;6.09;94.38
3096;BME280;1558;42.700;23.360;2023-11-21T03:40:06;95127.28;;;6.10;95.28
3096;BME280;1558;42.700;23.360;2023-11-21T03:42:35;95124.75;;;6.05;95.27
3096;BME280;1558;42.700;23.360;2023-11-21T03:45:05;95128.09;;;6.10;95.27
3096;BME280;1558;42.700;23.360;2023-11-21T03:47:33;95121.75;;;6.06;95.65
3096;BME280;1558;42.700;23.360;2023-11-21T03:50:02;95088.78;;;5.75;96.29
3096;BME280;1558;42.700;23.360;2023-11-21T03:52:30;95103.94;;;5.80;97.79
3096;BME280;1558;42.700;23.360;2023-11-21T03:54:59;95106.50;;;5.85;97.21
3096;BME280;1558;42.700;23.360;2023-11-21T03:57:27;95081.28;;;5.77;96.80
3096;BME280;1558;42.700;23.360;2023-11-21T03:59:55;95094.75;;;5.72;97.98
3096;BME280;1558;42.700;23.360;2023-11-21T04:02:24;95098.53;;;5.71;98.83
3096;BME280;1558;42.700;23.360;2023-11-21T04:04:53;95110.47;;;5.65;98.93
3096;BME280;1558;42.700;23.360;2023-11-21T04:07:21;95092.56;;;5.52;98.91
3096;BME280;1558;42.700;23.360;2023-11-21T04:09:49;95098.47;;;5.40;100.00
3096;BME280;1558;42.700;23.360;2023-11-21T04:12:18;95098.78;;;5.39;99.93
3096;BME280;1558;42.700;23.360;2023-11-21T04:14:46;95104.84;;;5.31;100.00
3096;BME280;1558;42.700;23.360;2023-11-21T04:17:14;95091.97;;;5.33;100.00
3096;BME280;1558;42.700;23.360;2023-11-21T04:19:43;95100.81;;;5.42;100.00
3096;BME280;1558;42.700;23.360;2023-11-21T04:22:12;95014.31;;;4.94;100.00
3096;BME280;1558;42.700;23.360;2023-11-21T04:24:40;95098.66;;;5.44;100.00
3096;BME280;1558;42.700;23.360;2023-11-21T04:27:08;95093.56;;;5.34;100.00
3096;BME280;1558;42.700;23.360;2023-11-21T04:29:36;95103.63;;;5.15;100.00
3096;BME280;1558;42.700;23.360;2023-11-21T04:32:05;95098.53;;;5.27;100.00
3096;BME280;1558;42.700;23.360;2023-11-21T04:34:33;95095.16;;;5.21;100.00
3096;BME280;1558;42.700;23.360;2023-11-21T04:37:03;95068.59;;;5.03;100.00
3096;BME280;1558;42.700;23.360;2023-11-21T04:39:33;95098.97;;;5.20;100.00
3096;BME280;1558;42.700;23.360;2023-11-21T04:42:01;95080.91;;;5.04;100.00
3096;BME280;1558;42.700;23.360;2023-11-21T04:44:29;95100.09;;;5.28;100.00
3096;BME280;1558;42.700;23.360;2023-11-21T04:46:57;95096.56;;;5.19;100.00
3096;BME280;1558;42.700;23.360;2023-11-21T04:49:25;95107.25;;;5.19;100.00
3096;BME280;1558;42.700;23.360;2023-11-21T04:51:53;95102.28;;;5.26;100.00
3096;BME280;1558;42.700;23.360;2023-11-21T04:54:23;95109.72;;;5.29;100.00
3096;BME280;1558;42.700;23.360;2023-11-21T04:56:54;95112.69;;;5.27;100.00
3096;BME280;1558;42.700;23.360;2023-11-21T04:59:22;95106.88;;;5.12;100.00
3096;BME280;1558;42.700;23.360;2023-11-21T05:01:51;95069.34;;;4.81;100.00
3096;BME280;1558;42.700;23.360;2023-11-21T05:04:20;95092.34;;;5.04;100.00
3096;BME280;1558;42.700;23.360;2023-11-21T05:06:49;95064.97;;;4.99;100.00
3096;BME280;1558;42.700;23.360;2023-11-21T05:09:17;95095.53;;;5.28;100.00
3096;BME280;1558;42.700;23.360;2023-11-21T05:11:47;95086.50;;;5.16;100.00
3096;BME280;1558;42.700;23.360;2023-11-21T05:14:15;95105.31;;;5.33;100.00
3096;BME280;1558;42.700;23.360;2023-11-21T05:16:43;95100.06;;;5.41;100.00
3096;BME280;1558;42.700;23.360;2023-11-21T05:19:11;95097.44;;;5.50;100.00
3096;BME280;1558;42.700;23.360;2023-11-21T05:21:39;95099.63;;;5.48;100.00
3096;BME280;1558;42.700;23.360;2023-11-21T05:24:08;95099.03;;;5.51;100.00
3096;BME280;1558;42.700;23.360;2023-11-21T05:26:36;95094.16;;;5.53;100.00
3096;BME280;1558;42.700;23.360;2023-11-21T05:29:06;95104.50;;;5.46;100.00
3096;BME280;1558;42.700;23.360;2023-11-21T05:31:35;95117.00;;;5.59;100.00
3096;BME280;1558;42.700;23.360;2023-11-21T05:34:04;95119.31;;;5.74;100.00
3096;BME280;1558;42.700;23.360;2023-11-21T05:36:34;95121.88;;;5.79;100.00
3096;BME280;1558;42.700;23.360;2023-11-21T05:39:02;95117.84;;;5.68;100.00
3096;BME280;1558;42.700;23.360;2023-11-21T05:41:31;95111.25;;;5.66;100.00
3096;BME280;1558;42.700;23.360;2023-11-21T05:43:59;95102.66;;;5.55;100.00
3096;BME280;1558;42.700;23.360;2023-11-21T05:46:29;95122.13;;;5.69;100.00
3096;BME280;1558;42.700;23.360;2023-11-21T05:48:57;95128.69;;;5.63;100.00
3096;BME280;1558;42.700;23.360;2023-11-21T05:51:26;95134.66;;;5.60;100.00
3096;BME280;1558;42.700;23.360;2023-11-21T05:53:54;95109.47;;;5.61;100.00
3096;BME280;1558;42.700;23.360;2023-11-21T05:56:22;95115.41;;;5.80;100.00
3096;BME280;1558;42.700;23.360;2023-11-21T05:58:50;95108.19;;;5.81;100.00
3096;BME280;1558;42.700;23.360;2023-11-21T06:01:19;95112.88;;;5.75;100.00
3096;BME280;1558;42.700;23.360;2023-11-21T06:03:49;95116.16;;;5.72;100.00
3096;BME280;1558;42.700;23.360;2023-11-21T06:06:17;95112.03;;;5.66;100.00
3096;BME280;1558;42.700;23.360;2023-11-21T06:08:46;95114.28;;;5.73;100.00
3096;BME280;1558;42.700;23.360;2023-11-21T06:11:14;95106.56;;;5.93;100.00
3096;BME280;1558;42.700;23.360;2023-11-21T06:13:43;95103.13;;;6.01;100.00
3096;BME280;1558;42.700;23.360;2023-11-21T06:16:11;95131.25;;;6.12;100.00
3096;BME280;1558;42.700;23.360;2023-11-21T06:18:43;95124.16;;;6.17;100.00
3096;BME280;1558;42.700;23.360;2023-11-21T06:21:13;95122.38;;;6.34;100.00
3096;BME280;1558;42.700;23.360;2023-11-21T06:23:43;95129.03;;;6.45;100.00
3096;BME280;1558;42.700;23.360;2023-11-21T06:26:11;95120.50;;;6.43;99.34
3096;BME280;1558;42.700;23.360;2023-11-21T06:28:40;95125.28;;;6.63;98.70
3096;BME280;1558;42.700;23.360;2023-11-21T06:31:08;95105.59;;;6.59;98.62
3096;BME280;1558;42.700;23.360;2023-11-21T06:33:37;95134.84;;;6.87;97.55
3096;BME280;1558;42.700;23.360;2023-11-21T06:36:06;95138.47;;;6.82;96.18
3096;BME280;1558;42.700;23.360;2023-11-21T06:38:36;95138.28;;;6.70;96.21
3096;BME280;1558;42.700;23.360;2023-11-21T06:41:04;95139.91;;;6.97;96.83
3096;BME280;1558;42.700;23.360;2023-11-21T06:43:32;95142.94;;;7.21;96.03
3096;BME280;1558;42.700;23.360;2023-11-21T06:46:01;95147.41;;;7.60;95.61
3096;BME280;1558;42.700;23.360;2023-11-21T06:48:29;95139.00;;;7.95;94.41
3096;BME280;1558;42.700;23.360;2023-11-21T06:50:57;95140.91;;;7.86;91.11
3096;BME280;1558;42.700;23.360;2023-11-21T06:53:26;95144.84;;;7.97;91.90
3096;BME280;1558;42.700;23.360;2023-11-21T06:55:55;95146.31;;;8.50;91.74
3096;BME280;1558;42.700;23.360;2023-11-21T06:58:23;95145.00;;;9.02;90.31
3096;BME280;1558;42.700;23.360;2023-11-21T07:00:52;95116.13;;;9.32;88.63
3096;BME280;1558;42.700;23.360;2023-11-21T07:03:22;95138.75;;;9.60;86.84
3096;BME280;1558;42.700;23.360;2023-11-21T07:05:51;95025.00;;;8.60;85.04
3096;BME280;1558;42.700;23.360;2023-11-21T07:08:19;95121.94;;;9.22;85.57
3096;BME280;1558;42.700;23.360;2023-11-21T07:10:47;95138.63;;;9.36;85.28
3096;BME280;1558;42.700;23.360;2023-11-21T07:13:17;95136.50;;;9.41;85.43
3096;BME280;1558;42.700;23.360;2023-11-21T07:15:46;95060.34;;;9.20;84.27
3096;BME280;1558;42.700;23.360;2023-11-21T07:18:14;95132.44;;;9.35;83.30
3096;BME280;1558;42.700;23.360;2023-11-21T07:20:43;95131.25;;;9.24;83.30
3096;BME280;1558;42.700;23.360;2023-11-21T07:23:11;95130.84;;;9.14;84.18
3096;BME280;1558;42.700;23.360;2023-11-21T07:25:39;95131.03;;;9.09;84.22
3096;BME280;1558;42.700;23.360;2023-11-21T07:28:08;95112.09;;;8.97;84.14
3096;BME280;1558;42.700;23.360;2023-11-21T07:30:37;95137.38;;;9.04;84.70
3096;BME280;1558;42.700;23.360;2023-11-21T07:33:05;95078.72;;;8.98;84.45
3096;BME280;1558;42.700;23.360;2023-11-21T07:35:34;95137.75;;;9.85;84.31
3096;BME280;1558;42.700;23.360;2023-11-21T07:38:02;95136.22;;;10.17;83.00
3096;BME280;1558;42.700;23.360;2023-11-21T07:40:30;95139.50;;;10.02;82.00
3096;BME280;1558;42.700;23.360;2023-11-21T07:42:58;95132.38;;;9.85;82.41
3096;BME280;1558;42.700;23.360;2023-11-21T07:45:26;95126.97;;;9.85;82.76
3096;BME280;1558;42.700;23.360;2023-11-21T07:47:56;95114.88;;;9.91;82.46
3096;BME280;1558;42.700;23.360;2023-11-21T07:50:25;95114.38;;;10.10;81.67
3096;BME280;1558;42.700;23.360;2023-11-21T07:52:53;95122.22;;;10.36;80.64
3096;BME280;1558;42.700;23.360;2023-11-21T07:55:22;95134.53;;;10.25;80.23
3096;BME280;1558;42.700;23.360;2023-11-21T07:57:51;95113.66;;;9.89;79.95
3096;BME280;1558;42.700;23.360;2023-11-21T08:00:20;95106.72;;;9.67;80.20
3096;BME280;1558;42.700;23.360;2023-11-21T08:02:48;95112.72;;;9.23;81.39
3096;BME280;1558;42.700;23.360;2023-11-21T08:05:17;95115.84;;;9.04;82.46
3096;BME280;1558;42.700;23.360;2023-11-21T08:07:58;95112.59;;;9.19;83.25
3096;BME280;1558;42.700;23.360;2023-11-21T08:10:26;95112.00;;;9.14;83.51
3096;BME280;1558;42.700;23.360;2023-11-21T08:12:54;95105.56;;;9.06;83.69
3096;BME280;1558;42.700;23.360;2023-11-21T08:15:22;95098.56;;;9.55;84.68
3096;BME280;1558;42.700;23.360;2023-11-21T08:17:52;95090.00;;;9.74;83.31
3096;BME280;1558;42.700;23.360;2023-11-21T08:20:23;95112.28;;;10.15;82.39
3096;BME280;1558;42.700;23.360;2023-11-21T08:22:52;95109.19;;;10.38;81.29
3096;BME280;1558;42.700;23.360;2023-11-21T08:25:20;95109.03;;;10.67;80.75
3096;BME280;1558;42.700;23.360;2023-11-21T08:27:49;95104.88;;;10.69;79.49
3096;BME280;1558;42.700;23.360;2023-11-21T08:30:17;95062.34;;;10.42;79.82
3096;BME280;1558;42.700;23.360;2023-11-21T08:32:46;95107.00;;;10.76;79.20
3096;BME280;1558;42.700;23.360;2023-11-21T08:35:14;95098.88;;;10.52;77.99
3096;BME280;1558;42.700;23.360;2023-11-21T08:37:45;95108.69;;;10.68;78.96
3096;BME280;1558;42.700;23.360;2023-11-21T08:40:13;95110.47;;;11.01;79.29
3096;BME280;1558;42.700;23.360;2023-11-21T08:42:44;95104.06;;;11.05;78.29
3096;BME280;1558;42.700;23.360;2023-11-21T08:45:13;95104.41;;;11.04;78.31
3096;BME280;1558;42.700;23.360;2023-11-21T08:47:41;95083.38;;;10.97;77.96
3096;BME280;1558;42.700;23.360;2023-11-21T08:50:11;95105.97;;;11.05;78.84
3096;BME280;1558;42.700;23.360;2023-11-21T08:52:40;95091.03;;;10.95;78.16
3096;BME280;1558;42.700;23.360;2023-11-21T08:55:10;95098.91;;;11.00;78.18
3096;BME280;1558;42.700;23.360;2023-11-21T08:57:39;95087.63;;;11.10;77.69
3096;BME280;1558;42.700;23.360;2023-11-21T09:00:08;95084.59;;;11.12;77.65
3096;BME280;1558;42.700;23.360;2023-11-21T09:02:38;95078.25;;;11.32;77.61
3096;BME280;1558;42.700;23.360;2023-11-21T09:05:09;95066.91;;;11.38;76.80
3096;BME280;1558;42.700;23.360;2023-11-21T09:07:38;95032.53;;;11.11;76.18
3096;BME280;1558;42.700;23.360;2023-11-21T09:10:10;95057.72;;;11.15;75.77
3096;BME280;1558;42.700;23.360;2023-11-21T09:12:38;94978.91;;;10.34;76.36
3096;BME280;1558;42.700;23.360;2023-11-21T09:15:07;95003.84;;;10.67;76.79
3096;BME280;1558;42.700;23.360;2023-11-21T09:17:36;95029.78;;;10.59;77.23
3096;BME280;1558;42.700;23.360;2023-11-21T09:20:06;95034.16;;;10.64;78.54
3096;BME280;1558;42.700;23.360;2023-11-21T09:22:37;95021.91;;;10.66;78.18
3096;BME280;1558;42.700;23.360;2023-11-21T09:25:05;95017.41;;;10.82;78.21
3096;BME280;1558;42.700;23.360;2023-11-21T09:27:36;95018.78;;;10.40;78.21
3096;BME280;1558;42.700;23.360;2023-11-21T09:30:06;95020.09;;;10.70;79.25
3096;BME280;1558;42.700;23.360;2023-11-21T09:32:37;94987.88;;;10.62;78.55
3096;BME280;1558;42.700;23.360;2023-11-21T09:35:08;94978.41;;;10.68;79.20
3096;BME280;1558;42.700;23.360;2023-11-21T09:37:36;94977.69;;;10.95;78.86
3096;BME280;1558;42.700;23.360;2023-11-21T09:40:10;94977.22;;;11.61;77.81
3096;BME280;1558;42.700;23.360;2023-11-21T09:42:46;94945.56;;;11.45;75.61
3096;BME280;1558;42.700;23.360;2023-11-21T09:45:21;94966.06;;;12.05;75.19
3096;BME280;1558;42.700;23.360;2023-11-21T09:47:52;94950.47;;;12.14;75.12
3096;BME280;1558;42.700;23.360;2023-11-21T09:50:21;94959.34;;;12.15;73.80
3096;BME280;1558;42.700;23.360;2023-11-21T09:52:55;94929.34;;;11.89;73.42
3096;BME280;1558;42.700;23.360;2023-11-21T09:55:27;94862.69;;;11.18;73.57
3096;BME280;1558;42.700;23.360;2023-11-21T09:57:58;94933.03;;;11.81;73.83
3096;BME280;1558;42.700;23.360;2023-11-21T10:00:32;94934.16;;;12.11;73.75
3096;BME280;1558;42.700;23.360;2023-11-21T10:03:00;94924.28;;;12.34;73.91
3096;BME280;1558;42.700;23.360;2023-11-21T10:05:29;94915.97;;;12.77;71.96
3096;BME280;1558;42.700;23.360;2023-11-21T10:08:01;94923.13;;;12.85;70.91
3096;BME280;1558;42.700;23.360;2023-11-21T10:10:32;94925.41;;;13.22;71.27
3096;BME280;1558;42.700;23.360;2023-11-21T10:13:03;94927.88;;;13.69;70.93
3096;BME280;1558;42.700;23.360;2023-11-21T10:15:34;94920.06;;;13.86;68.52
3096;BME280;1558;42.700;23.360;2023-11-21T10:18:04;94913.88;;;13.86;66.79
3096;BME280;1558;42.700;23.360;2023-11-21T10:20:33;94814.28;;;13.60;67.17
3096;BME280;1558;42.700;23.360;2023-11-21T10:23:01;94901.94;;;14.62;65.90
3096;BME280;1558;42.700;23.360;2023-11-21T10:25:30;94895.19;;;14.52;64.36
3096;BME280;1558;42.700;23.360;2023-11-21T10:28:03;94882.88;;;14.32;64.47
3096;BME280;1558;42.700;23.360;2023-11-21T10:30:34;94887.94;;;14.11;63.80
3096;BME280;1558;42.700;23.360;2023-11-21T10:33:04;94885.47;;;13.80;64.41
3096;BME280;1558;42.700;23.360;2023-11-21T10:35:42;94812.13;;;13.24;64.88
3096;BME280;1558;42.700;23.360;2023-11-21T10:38:14;94867.94;;;13.51;65.15
3096;BME280;1558;42.700;23.360;2023-11-21T10:40:42;94865.59;;;13.49;64.24
3096;BME280;1558;42.700;23.360;2023-11-21T10:43:13;94869.75;;;13.66;64.35
3096;BME280;1558;42.700;23.360;2023-11-21T10:45:42;94876.44;;;13.49;65.16
3096;BME280;1558;42.700;23.360;2023-11-21T10:48:12;94872.72;;;13.38;64.96
3096;BME280;1558;42.700;23.360;2023-11-21T10:50:43;94845.53;;;13.12;65.23
3096;BME280;1558;42.700;23.360;2023-11-21T10:53:11;94873.31;;;13.70;65.38
3096;BME280;1558;42.700;23.360;2023-11-21T10:55:40;94865.84;;;13.64;64.31
3096;BME280;1558;42.700;23.360;2023-11-21T10:58:09;94860.09;;;13.46;64.52
3096;BME280;1558;42.700;23.360;2023-11-21T11:00:40;94862.47;;;13.47;64.03
3096;BME280;1558;42.700;23.360;2023-11-21T11:03:09;94854.44;;;13.32;64.12
3096;BME280;1558;42.700;23.360;2023-11-21T11:05:43;94844.59;;;13.43;64.92
3096;BME280;1558;42.700;23.360;2023-11-21T11:08:20;94784.34;;;12.88;65.04
3096;BME280;1558;42.700;23.360;2023-11-21T11:10:54;94845.84;;;13.26;65.30
3096;BME280;1558;42.700;23.360;2023-11-21T11:13:23;94843.91;;;13.08;65.33
3096;BME280;1558;42.700;23.360;2023-11-21T11:15:58;94845.97;;;12.76;65.92
3096;BME280;1558;42.700;23.360;2023-11-21T11:18:27;94844.34;;;12.90;66.42
3096;BME280;1558;42.700;23.360;2023-11-21T11:21:05;94834.34;;;12.95;65.88
3096;BME280;1558;42.700;23.360;2023-11-21T11:23:45;94832.06;;;12.97;65.70
3096;BME280;1558;42.700;23.360;2023-11-21T11:26:26;94802.88;;;13.06;65.24
3096;BME280;1558;42.700;23.360;2023-11-21T11:29:04;94814.81;;;13.24;66.28
3096;BME280;1558;42.700;23.360;2023-11-21T11:31:44;94815.41;;;13.14;66.10
3096;BME280;1558;42.700;23.360;2023-11-21T11:34:20;94800.53;;;13.27;66.24
3096;BME280;1558;42.700;23.360;2023-11-21T11:36:55;94803.78;;;13.13;66.12
3096;BME280;1558;42.700;23.360;2023-11-21T11:39:28;94806.09;;;13.34;66.23
3096;BME280;1558;42.700;23.360;2023-11-21T11:41:57;94708.41;;;12.81;65.32
3096;BME280;1558;42.700;23.360;2023-11-21T11:44:50;94798.75;;;13.34;64.91
3096;BME280;1558;42.700;23.360;2023-11-21T11:47:23;94803.13;;;13.20;65.09
3096;BME280;1558;42.700;23.360;2023-11-21T11:50:01;94812.34;;;13.15;66.03
3096;BME280;1558;42.700;23.360;2023-11-21T11:52:35;94777.56;;;12.79;65.78
3096;BME280;1558;42.700;23.360;2023-11-21T11:55:05;94817.69;;;12.93;66.68
3096;BME280;1558;42.700;23.360;2023-11-21T11:57:34;94828.13;;;13.10;67.34
3096;BME280;1558;42.700;23.360;2023-11-21T12:00:14;94818.28;;;13.05;68.73
3096;BME280;1558;42.700;23.360;2023-11-21T12:02:53;94741.84;;;12.70;69.11
3096;BME280;1558;42.700;23.360;2023-11-21T12:05:23;94813.13;;;13.16;70.79
3096;BME280;1558;42.700;23.360;2023-11-21T12:07:55;94810.28;;;13.09;70.77
3096;BME280;1558;42.700;23.360;2023-11-21T12:10:25;94819.03;;;13.21;71.14
3096;BME280;1558;42.700;23.360;2023-11-21T12:12:55;94820.03;;;13.13;71.61
3096;BME280;1558;42.700;23.360;2023-11-21T12:15:23;94782.94;;;12.75;73.42
3096;BME280;1558;42.700;23.360;2023-11-21T12:17:53;94800.91;;;12.83;73.86
3096;BME280;1558;42.700;23.360;2023-11-21T12:20:23;94808.69;;;12.69;76.32
3096;BME280;1558;42.700;23.360;2023-11-21T12:22:52;94803.66;;;12.68;77.38
3096;BME280;1558;42.700;23.360;2023-11-21T12:25:21;94770.25;;;12.22;78.58
3096;BME280;1558;42.700;23.360;2023-11-21T12:27:51;94802.94;;;12.33;80.02
3096;BME280;1558;42.700;23.360;2023-11-21T12:30:21;94812.03;;;12.24;81.22
3096;BME280;1558;42.700;23.360;2023-11-21T12:32:53;94807.72;;;12.04;82.53
3096;BME280;1558;42.700;23.360;2023-11-21T12:35:25;94695.69;;;11.17;84.35
3096;BME280;1558;42.700;23.360;2023-11-21T12:37:58;94819.97;;;11.83;84.76
3096;BME280;1558;42.700;23.360;2023-11-21T12:40:27;94801.72;;;11.48;85.99
3096;BME280;1558;42.700;23.360;2023-11-21T12:42:57;94810.28;;;11.66;86.86
3096;BME280;1558;42.700;23.360;2023-11-21T12:45:27;94684.34;;;11.11;86.88
3096;BME280;1558;42.700;23.360;2023-11-21T12:48:00;94807.06;;;11.76;87.66
3096;BME280;1558;42.700;23.360;2023-11-21T12:50:31;94792.94;;;11.83;88.17
3096;BME280;1558;42.700;23.360;2023-11-21T12:53:01;94788.81;;;11.89;88.07
3096;BME280;1558;42.700;23.360;2023-11-21T12:55:32;94784.31;;;11.77;88.00
3096;BME280;1558;42.700;23.360;2023-11-21T12:58:06;94776.31;;;11.81;87.22
3096;BME280;1558;42.700;23.360;2023-11-21T13:00:39;94720.47;;;11.38;86.77
3096;BME280;1558;42.700;23.360;2023-11-21T13:03:14;94737.97;;;11.44;87.06
3096;BME280;1558;42.700;23.360;2023-11-21T13:05:46;94731.34;;;11.41;87.43
3096;BME280;1558;42.700;23.360;2023-11-21T13:08:20;94759.56;;;11.60;88.44
3096;BME280;1558;42.700;23.360;2023-11-21T13:10:51;94769.06;;;11.53;88.10
3096;BME280;1558;42.700;23.360;2023-11-21T13:13:20;94745.53;;;11.70;87.02
3096;BME280;1558;42.700;23.360;2023-11-21T13:15:52;94766.03;;;11.71;86.59
3096;BME280;1558;42.700;23.360;2023-11-21T13:18:26;94694.19;;;11.19;86.41
3096;BME280;1558;42.700;23.360;2023-11-21T13:20:56;94772.72;;;11.77;86.57
3096;BME280;1558;42.700;23.360;2023-11-21T13:23:26;94774.91;;;11.71;86.37
3096;BME280;1558;42.700;23.360;2023-11-21T13:25:58;94731.03;;;11.43;85.86
3096;BME280;1558;42.700;23.360;2023-11-21T13:28:33;94755.81;;;11.80;85.73